createdAt,value
2023-10-12T00:02:04.101Z,68.49
2023-10-12T00:04:47.731Z,68.81
2023-10-12T00:07:29.295Z,69.14
2023-10-12T00:10:23.470Z,69.14
2023-10-12T00:13:01.251Z,69.30
2023-10-12T00:15:40.192Z,68.91
2023-10-12T00:18:20.079Z,69.37
2023-10-12T00:21:01.404Z,69.43
2023-10-12T00:23:35.237Z,69.61
2023-10-12T00:26:17.474Z,69.27
2023-10-12T00:28:55.405Z,69.78
2023-10-12T00:31:30.025Z,69.82
2023-10-12T00:34:12.138Z,70.08
2023-10-12T00:36:54.511Z,70.32
2023-10-12T00:39:34.377Z,70.15
2023-10-12T00:42:15.649Z,70.37
2023-10-12T00:44:53.808Z,70.80
2023-10-12T00:47:47.895Z,70.43
2023-10-12T00:50:32.484Z,70.92
2023-10-12T00:53:19.620Z,70.65
2023-10-12T00:56:01.754Z,70.75
2023-10-12T00:58:43.901Z,70.65
2023-10-12T01:01:38.765Z,70.96
2023-10-12T01:04:19.381Z,70.65
2023-10-12T01:07:01.161Z,70.52
2023-10-12T01:09:47.935Z,70.87
2023-10-12T01:12:24.009Z,70.78
2023-10-12T01:15:11.315Z,70.77
2023-10-12T01:17:53.706Z,70.88
2023-10-12T01:20:39.780Z,70.63
2023-10-12T01:23:21.944Z,71.34
2023-10-12T01:26:14.942Z,70.94
2023-10-12T01:29:05.844Z,71.02
2023-10-12T01:31:45.459Z,70.87
2023-10-12T01:34:28.554Z,71.05
2023-10-12T01:37:09.129Z,71.35
2023-10-12T01:39:58.552Z,70.98
2023-10-12T01:42:52.334Z,71.37
2023-10-12T01:45:52.204Z,71.45
2023-10-12T01:48:41.352Z,71.05
2023-10-12T01:51:22.255Z,71.51
2023-10-12T01:54:09.661Z,71.19
2023-10-12T01:56:52.646Z,70.91
2023-10-12T01:59:27.045Z,71.31
2023-10-12T02:02:10.201Z,71.33
2023-10-12T02:04:53.571Z,70.93
2023-10-12T02:07:26.978Z,71.44
2023-10-12T02:10:03.715Z,71.22
2023-10-12T02:12:44.304Z,71.15
2023-10-12T02:15:20.738Z,71.03
2023-10-12T02:17:53.002Z,70.64
2023-10-12T02:20:34.857Z,70.93
2023-10-12T02:23:14.730Z,70.67
2023-10-12T02:25:59.869Z,70.93
2023-10-12T02:28:50.435Z,70.79
2023-10-12T02:31:27.466Z,70.76
2023-10-12T02:34:07.101Z,70.86
2023-10-12T02:36:46.562Z,70.96
2023-10-12T02:39:25.298Z,70.63
2023-10-12T02:42:20.192Z,70.70
2023-10-12T02:45:13.513Z,70.65
2023-10-12T02:47:48.627Z,70.50
2023-10-12T02:50:48.284Z,70.23
2023-10-12T02:53:33.870Z,70.07
2023-10-12T02:56:07.256Z,69.97
2023-10-12T02:58:39.299Z,70.00
2023-10-12T03:01:22.170Z,70.36
2023-10-12T03:04:03.921Z,70.13
2023-10-12T03:06:55.154Z,69.94
2023-10-12T03:09:40.782Z,70.03
2023-10-12T03:12:27.904Z,70.12
2023-10-12T03:15:07.077Z,69.99
2023-10-12T03:17:44.089Z,70.53
2023-10-12T03:20:30.694Z,70.37
2023-10-12T03:23:16.641Z,70.75
2023-10-12T03:26:06.203Z,70.49
2023-10-12T03:29:04.388Z,70.61
2023-10-12T03:31:57.188Z,71.18
2023-10-12T03:34:57.846Z,70.91
2023-10-12T03:37:43.977Z,70.83
2023-10-12T03:40:31.881Z,71.06
2023-10-12T03:43:18.106Z,71.07
2023-10-12T03:46:05.402Z,71.13
2023-10-12T03:49:07.233Z,71.22
2023-10-12T03:52:02.563Z,71.45
2023-10-12T03:54:35.375Z,71.79
2023-10-12T03:57:24.825Z,71.69
2023-10-12T04:00:28.225Z,72.21
2023-10-12T04:03:09.733Z,72.26
2023-10-12T04:05:54.699Z,72.20
2023-10-12T04:08:56.557Z,73.25
2023-10-12T04:12:02.238Z,73.49
2023-10-12T04:14:47.326Z,73.78
2023-10-12T04:17:41.582Z,73.90
2023-10-12T04:20:26.533Z,74.25
2023-10-12T04:23:22.708Z,74.40
2023-10-12T04:26:30.536Z,75.07
2023-10-12T04:29:15.923Z,75.04
2023-10-12T04:31:55.256Z,75.25
2023-10-12T04:37:38.372Z,75.52
2023-10-12T04:40:42.801Z,75.72
2023-10-12T04:43:34.350Z,75.43
2023-10-12T04:46:49.589Z,75.69
2023-10-12T04:49:35.608Z,75.49
2023-10-12T04:52:22.506Z,75.81
2023-10-12T04:55:24.482Z,75.69
2023-10-12T04:58:15.246Z,75.43
2023-10-12T05:01:24.846Z,75.75
2023-10-12T05:04:10.724Z,75.86
2023-10-12T05:06:52.474Z,76.06
2023-10-12T05:09:29.700Z,76.30
2023-10-12T05:12:05.461Z,76.48
2023-10-12T05:14:40.968Z,76.77
2023-10-12T05:17:20.356Z,77.20
2023-10-12T05:20:00.289Z,77.33
2023-10-12T05:22:34.766Z,77.40
2023-10-12T05:25:11.201Z,77.58
2023-10-12T05:28:07.203Z,77.48
2023-10-12T05:30:51.001Z,77.09
2023-10-12T05:33:47.304Z,77.42
2023-10-12T05:36:21.984Z,77.51
2023-10-12T05:39:03.649Z,77.36
2023-10-12T05:41:41.679Z,77.56
2023-10-12T05:44:44.986Z,77.51
2023-10-12T05:47:31.992Z,77.63
2023-10-12T05:50:19.291Z,77.71
2023-10-12T05:52:57.278Z,77.69
2023-10-12T05:55:30.601Z,77.15
2023-10-12T05:58:14.352Z,77.44
2023-10-12T06:00:51.015Z,76.95
2023-10-12T06:03:22.692Z,76.82
2023-10-12T06:06:04.193Z,76.65
2023-10-12T06:08:41.328Z,76.66
2023-10-12T06:11:34.263Z,76.59
2023-10-12T06:14:19.329Z,76.64
2023-10-12T06:17:03.368Z,76.70
2023-10-12T06:19:48.321Z,76.54
2023-10-12T06:22:37.481Z,76.44
2023-10-12T06:25:23.814Z,75.85
2023-10-12T06:28:01.099Z,75.77
2023-10-12T06:30:32.790Z,75.29
2023-10-12T06:33:09.243Z,75.29
2023-10-12T06:36:02.775Z,74.83
2023-10-12T06:38:53.153Z,74.49
2023-10-12T06:41:46.809Z,73.99
2023-10-12T06:44:29.828Z,73.93
2023-10-12T06:47:21.841Z,73.50
2023-10-12T06:50:05.982Z,73.72
2023-10-12T06:52:46.138Z,73.33
2023-10-12T06:55:36.074Z,72.65
2023-10-12T06:58:16.242Z,73.09
2023-10-12T07:01:04.444Z,72.88
2023-10-12T07:03:39.388Z,73.19
2023-10-12T07:06:21.338Z,73.19
2023-10-12T07:08:52.755Z,72.46
2023-10-12T07:11:34.342Z,72.59
2023-10-12T07:14:14.044Z,72.19
2023-10-12T07:16:57.408Z,72.24
2023-10-12T07:19:27.848Z,71.92
2023-10-12T07:22:04.316Z,71.53
2023-10-12T07:24:44.728Z,70.78
2023-10-12T07:27:22.529Z,70.92
2023-10-12T07:30:15.747Z,70.56
2023-10-12T07:32:59.851Z,70.56
2023-10-12T07:35:36.414Z,69.75
2023-10-12T07:38:29.727Z,69.32
2023-10-12T07:41:12.267Z,69.04
2023-10-12T07:43:54.409Z,67.83
2023-10-12T07:46:30.917Z,68.22
2023-10-12T07:49:25.536Z,67.65
2023-10-12T07:52:15.759Z,67.48
2023-10-12T07:55:05.901Z,66.95
2023-10-12T07:57:42.812Z,67.51
2023-10-12T08:00:47.093Z,66.71
2023-10-12T08:03:28.387Z,66.84
2023-10-12T08:06:02.144Z,65.57
2023-10-12T08:08:49.044Z,66.03
2023-10-12T08:11:33.604Z,66.42
2023-10-12T08:14:42.117Z,65.97
2023-10-12T08:17:40.908Z,64.02
2023-10-12T08:20:30.661Z,64.21
2023-10-12T08:23:23.009Z,63.60
2023-10-12T08:26:06.546Z,63.17
2023-10-12T08:28:56.730Z,61.98
2023-10-12T08:31:36.731Z,62.44
2023-10-12T08:34:41.734Z,61.28
2023-10-12T08:37:27.769Z,61.30
2023-10-12T08:40:09.738Z,59.97
2023-10-12T08:42:59.814Z,60.33
2023-10-12T08:45:35.782Z,59.92
2023-10-12T08:48:22.596Z,59.26
2023-10-12T08:51:18.655Z,59.98
2023-10-12T08:54:01.974Z,60.50
2023-10-12T08:56:49.147Z,59.71
2023-10-12T08:59:26.539Z,59.92
2023-10-12T09:02:20.542Z,59.90
2023-10-12T09:05:04.362Z,59.91
2023-10-12T09:07:50.954Z,60.45
2023-10-12T09:10:40.523Z,59.19
2023-10-12T09:13:20.667Z,59.43
2023-10-12T09:16:12.165Z,59.26
2023-10-12T09:19:01.524Z,59.29
2023-10-12T09:21:41.697Z,59.77
2023-10-12T09:24:30.636Z,59.90
2023-10-12T09:27:16.083Z,59.39
2023-10-12T09:30:06.139Z,58.56
2023-10-12T09:33:15.064Z,58.33
2023-10-12T09:35:53.462Z,58.91
2023-10-12T09:38:32.165Z,58.27
2023-10-12T09:41:12.993Z,57.69
2023-10-12T09:43:57.950Z,57.57
2023-10-12T09:46:36.128Z,58.03
2023-10-12T09:49:26.367Z,57.03
2023-10-12T09:52:10.515Z,59.78
2023-10-12T09:54:53.680Z,60.18
2023-10-12T09:57:38.038Z,58.63
2023-10-12T10:00:34.109Z,60.70
2023-10-12T10:03:10.627Z,60.05
2023-10-12T10:06:08.791Z,59.48
2023-10-12T10:08:51.304Z,59.30
2023-10-12T10:11:31.551Z,58.71
2023-10-12T10:14:14.859Z,55.69
2023-10-12T10:17:01.502Z,55.85
2023-10-12T10:19:46.260Z,56.24
2023-10-12T10:22:25.045Z,56.03
2023-10-12T10:25:01.017Z,54.54
2023-10-12T10:27:37.107Z,55.78
2023-10-12T10:30:38.225Z,54.61
2023-10-12T10:33:19.302Z,54.69
2023-10-12T10:36:14.548Z,54.17
2023-10-12T10:38:55.800Z,54.42
2023-10-12T10:41:43.118Z,53.49
2023-10-12T10:44:21.153Z,53.36
2023-10-12T10:47:10.878Z,52.97
2023-10-12T10:49:46.816Z,52.57
2023-10-12T10:52:21.960Z,53.21
2023-10-12T10:55:01.577Z,52.57
2023-10-12T10:57:57.752Z,50.99
2023-10-12T11:00:38.714Z,52.00
2023-10-12T11:03:26.335Z,52.25
2023-10-12T11:06:04.396Z,52.11
2023-10-12T11:08:40.332Z,51.52
2023-10-12T11:11:30.211Z,51.50
2023-10-12T11:14:12.984Z,50.17
2023-10-12T11:17:08.259Z,49.66
2023-10-12T11:19:52.972Z,49.59
2023-10-12T11:22:31.578Z,50.09
2023-10-12T11:25:06.055Z,49.43
2023-10-12T11:27:41.582Z,49.33
2023-10-12T11:30:23.178Z,50.46
2023-10-12T11:33:17.063Z,47.64
2023-10-12T11:36:12.553Z,47.68
2023-10-12T11:38:49.909Z,47.54
2023-10-12T11:41:26.392Z,46.44
2023-10-12T11:44:12.109Z,45.12
2023-10-12T11:47:01.045Z,45.49
2023-10-12T11:49:39.366Z,47.64
2023-10-12T11:52:39.461Z,46.18
2023-10-12T11:56:07.454Z,46.36
2023-10-12T11:58:49.448Z,47.73
2023-10-12T12:01:21.278Z,46.96
2023-10-12T12:03:56.307Z,46.72
2023-10-12T12:06:33.786Z,46.03
2023-10-12T12:09:10.595Z,45.77
2023-10-12T12:11:42.640Z,44.19
2023-10-12T12:14:15.246Z,44.18
2023-10-12T12:16:55.854Z,45.42
2023-10-12T12:19:29.251Z,44.41
2023-10-12T12:22:01.527Z,44.19
2023-10-12T12:24:37.581Z,44.77
2023-10-12T12:27:31.567Z,44.69
2023-10-12T12:32:50.919Z,44.01
2023-10-12T12:35:30.832Z,42.96
2023-10-12T12:38:18.274Z,42.83
2023-10-12T12:41:24.480Z,43.31
2023-10-12T12:44:04.032Z,42.96
2023-10-12T12:47:02.411Z,42.66
2023-10-12T12:49:40.961Z,42.52
2023-10-12T12:52:22.284Z,41.84
2023-10-12T12:55:08.406Z,42.17
2023-10-12T12:57:55.901Z,43.05
2023-10-12T13:00:39.528Z,42.87
2023-10-12T13:03:21.575Z,41.79
2023-10-12T13:05:59.047Z,42.48
2023-10-12T13:08:37.090Z,42.16
2023-10-12T13:11:15.479Z,41.23
2023-10-12T13:14:11.146Z,40.34
2023-10-12T13:16:53.741Z,40.40
2023-10-12T13:19:31.477Z,40.42
2023-10-12T13:22:06.521Z,40.06
2023-10-12T13:24:53.603Z,39.55
2023-10-12T13:27:33.094Z,40.13
2023-10-12T13:30:16.886Z,40.43
2023-10-12T13:32:50.468Z,40.16
2023-10-12T13:35:40.701Z,40.37
2023-10-12T13:38:38.638Z,40.69
2023-10-12T13:41:28.494Z,41.71
2023-10-12T13:44:10.665Z,41.73
2023-10-12T13:47:02.968Z,41.72
2023-10-12T13:49:47.468Z,42.95
2023-10-12T13:52:25.854Z,43.09
2023-10-12T13:55:13.952Z,43.38
2023-10-12T13:57:58.969Z,42.95
2023-10-12T14:00:43.730Z,43.28
2023-10-12T14:03:40.858Z,42.94
2023-10-12T14:06:25.158Z,43.26
2023-10-12T14:09:13.390Z,43.88
2023-10-12T14:11:51.655Z,44.10
2023-10-12T14:14:30.754Z,44.38
2023-10-12T14:17:14.036Z,44.56
2023-10-12T14:20:02.846Z,44.40
2023-10-12T14:22:53.288Z,44.95
2023-10-12T14:25:39.958Z,45.75
2023-10-12T14:28:25.969Z,45.72
2023-10-12T14:31:16.772Z,45.71
2023-10-12T14:34:15.115Z,45.82
2023-10-12T14:36:59.368Z,46.07
2023-10-12T14:39:38.519Z,46.23
2023-10-12T14:42:22.245Z,46.70
2023-10-12T14:44:57.374Z,47.07
2023-10-12T14:47:29.547Z,47.31
2023-10-12T14:50:26.967Z,47.29
2023-10-12T14:53:13.361Z,47.30
2023-10-12T14:56:02.129Z,47.57
2023-10-12T14:59:25.901Z,48.28
2023-10-12T15:02:10.626Z,48.04
2023-10-12T15:04:43.635Z,47.50
2023-10-12T15:07:23.857Z,47.34
2023-10-12T15:10:20.438Z,47.56
2023-10-12T15:13:16.747Z,47.86
2023-10-12T15:15:53.732Z,48.76
2023-10-12T15:18:30.189Z,48.81
2023-10-12T15:21:17.236Z,49.67
2023-10-12T15:23:57.128Z,50.08
2023-10-12T15:26:41.077Z,50.14
2023-10-12T15:29:22.479Z,50.66
2023-10-12T15:32:00.140Z,51.09
2023-10-12T15:34:41.855Z,50.80
2023-10-12T15:37:16.854Z,51.15
2023-10-12T15:39:52.354Z,51.87
2023-10-12T15:42:35.023Z,52.16
2023-10-12T15:45:18.886Z,52.26
2023-10-12T15:48:02.452Z,52.79
2023-10-12T15:50:38.163Z,53.44
2023-10-12T15:53:24.874Z,53.99
2023-10-12T15:56:00.416Z,54.43
2023-10-12T15:58:39.960Z,55.36
2023-10-12T16:01:20.736Z,55.41
2023-10-12T16:04:26.679Z,56.00
2023-10-12T16:07:21.522Z,56.33
2023-10-12T16:09:57.302Z,56.99
2023-10-12T16:12:34.871Z,56.99
2023-10-12T16:15:09.035Z,57.50
2023-10-12T16:17:53.371Z,57.42
2023-10-12T16:20:43.606Z,58.01
2023-10-12T16:23:17.804Z,58.33
2023-10-12T16:26:06.037Z,58.62
2023-10-12T16:28:42.642Z,58.43
2023-10-12T16:31:18.452Z,58.84
2023-10-12T16:34:12.088Z,58.98
2023-10-12T16:37:01.426Z,59.87
2023-10-12T16:39:36.516Z,59.61
2023-10-12T16:42:13.733Z,60.23
2023-10-12T16:44:50.886Z,59.85
2023-10-12T16:47:30.669Z,60.23
2023-10-12T16:50:15.577Z,60.31
2023-10-12T16:52:51.331Z,60.08
2023-10-12T16:55:31.924Z,60.52
2023-10-12T16:58:11.998Z,60.35
2023-10-12T17:00:55.473Z,60.30
2023-10-12T17:03:31.840Z,60.30
2023-10-12T17:06:24.739Z,60.32
2023-10-12T17:08:59.369Z,60.12
2023-10-12T17:14:24.500Z,60.23
2023-10-12T17:17:01.781Z,60.85
2023-10-12T17:19:41.537Z,60.83
2023-10-12T17:22:20.103Z,60.92
2023-10-12T17:24:58.279Z,60.94
2023-10-12T17:27:34.460Z,61.13
2023-10-12T17:30:09.838Z,61.24
2023-10-12T17:32:46.523Z,61.83
2023-10-12T17:35:34.669Z,61.64
2023-10-12T17:38:15.336Z,62.31
2023-10-12T17:40:57.503Z,62.17
2023-10-12T17:43:35.174Z,62.80
2023-10-12T17:46:19.545Z,63.33
2023-10-12T17:49:03.886Z,63.00
2023-10-12T17:51:49.745Z,62.87
2023-10-12T17:54:39.108Z,63.22
2023-10-12T17:57:20.429Z,62.92
2023-10-12T18:00:21.699Z,62.51
2023-10-12T18:03:16.290Z,62.10
2023-10-12T18:06:01.660Z,61.58
2023-10-12T18:08:42.612Z,61.07
2023-10-12T18:11:32.013Z,60.85
2023-10-12T18:14:07.709Z,60.82
2023-10-12T18:16:42.585Z,60.78
2023-10-12T18:19:16.128Z,61.24
2023-10-12T18:21:57.144Z,61.49
2023-10-12T18:24:36.842Z,61.71
2023-10-12T18:27:15.077Z,62.21
2023-10-12T18:30:03.819Z,62.72
2023-10-12T18:32:43.434Z,62.94
2023-10-12T18:35:26.579Z,63.07
2023-10-12T18:38:10.948Z,63.18
2023-10-12T18:40:53.881Z,62.62
2023-10-12T18:43:31.494Z,62.76
2023-10-12T18:46:07.615Z,63.21
2023-10-12T18:48:49.108Z,63.78
2023-10-12T18:51:31.200Z,64.02
2023-10-12T18:54:07.899Z,64.12
2023-10-12T18:56:44.958Z,64.23
2023-10-12T18:59:27.960Z,64.12
2023-10-12T19:02:02.497Z,64.64
2023-10-12T19:04:35.313Z,64.56
2023-10-12T19:07:19.879Z,64.99
2023-10-12T19:09:59.348Z,65.36
2023-10-12T19:12:40.634Z,65.16
2023-10-12T19:15:19.593Z,65.14
2023-10-12T19:18:13.389Z,65.51
2023-10-12T19:20:46.582Z,65.86
2023-10-12T19:23:20.769Z,65.95
2023-10-12T19:25:59.962Z,66.22
2023-10-12T19:28:36.024Z,65.90
2023-10-12T19:31:22.902Z,66.43
2023-10-12T19:33:57.437Z,66.05
2023-10-12T19:36:32.599Z,66.54
2023-10-12T19:39:12.941Z,67.38
2023-10-12T19:41:48.050Z,67.48
2023-10-12T19:44:21.021Z,67.64
2023-10-12T19:47:02.578Z,68.58
2023-10-12T19:49:51.106Z,68.81
2023-10-12T19:52:29.543Z,69.71
2023-10-12T19:55:07.260Z,69.96
2023-10-12T19:57:40.258Z,70.28
2023-10-12T20:00:25.433Z,70.65
2023-10-12T20:03:20.113Z,69.63
2023-10-12T20:06:08.183Z,69.19
2023-10-12T20:08:40.113Z,69.02
2023-10-12T20:11:18.010Z,69.02
2023-10-12T20:14:01.902Z,69.86
2023-10-12T20:16:35.245Z,69.64
2023-10-12T20:19:17.295Z,70.01
2023-10-12T20:21:49.344Z,69.97
2023-10-12T20:24:34.477Z,69.79
2023-10-12T20:27:07.794Z,70.28
2023-10-12T20:29:47.104Z,70.84
2023-10-12T20:32:20.662Z,70.31
2023-10-12T20:35:00.764Z,70.46
2023-10-12T20:37:36.582Z,71.26
2023-10-12T20:40:23.005Z,71.59
2023-10-12T20:43:04.263Z,72.18
2023-10-12T20:45:39.646Z,71.59
2023-10-12T20:48:31.907Z,71.82
2023-10-12T20:51:17.417Z,72.49
2023-10-12T20:53:58.481Z,72.44
2023-10-12T20:56:43.799Z,72.11
2023-10-12T20:59:31.732Z,71.56
2023-10-12T21:02:23.502Z,72.11
2023-10-12T21:05:06.586Z,72.28
2023-10-12T21:07:48.400Z,72.50
2023-10-12T21:10:24.754Z,72.44
2023-10-12T21:13:13.093Z,73.29
2023-10-12T21:15:57.647Z,73.66
2023-10-12T21:18:55.861Z,74.17
2023-10-12T21:21:37.066Z,73.85
2023-10-12T21:24:20.221Z,73.79
2023-10-12T21:26:58.409Z,73.79
2023-10-12T21:29:37.792Z,73.92
2023-10-12T21:32:32.053Z,73.75
2023-10-12T21:35:24.227Z,74.26
2023-10-12T21:38:15.619Z,74.44
2023-10-12T21:41:00.953Z,75.49
2023-10-12T21:43:39.890Z,75.51
2023-10-12T21:46:18.364Z,74.80
2023-10-12T21:48:55.224Z,74.79
2023-10-12T21:51:37.028Z,75.32
2023-10-12T21:54:16.910Z,76.06
2023-10-12T21:57:05.049Z,75.97
2023-10-12T21:59:37.897Z,76.21
2023-10-12T22:02:24.266Z,76.74
2023-10-12T22:05:03.286Z,77.12
2023-10-12T22:07:52.523Z,76.65
2023-10-12T22:10:28.718Z,76.01
2023-10-12T22:13:14.501Z,76.14
2023-10-12T22:16:05.157Z,76.91
2023-10-12T22:18:52.494Z,77.81
2023-10-12T22:21:37.634Z,78.02
2023-10-12T22:24:24.317Z,77.81
2023-10-12T22:27:15.501Z,77.43
2023-10-12T22:29:57.087Z,77.16
2023-10-12T22:32:34.975Z,76.85
2023-10-12T22:35:14.272Z,76.68
2023-10-12T22:37:52.324Z,76.92
2023-10-12T22:40:31.097Z,77.10
2023-10-12T22:43:17.060Z,77.06
2023-10-12T22:46:09.775Z,76.90
2023-10-12T22:48:40.491Z,76.82
2023-10-12T22:51:16.320Z,77.24
2023-10-12T22:54:01.037Z,76.88
2023-10-12T22:56:40.798Z,76.78
2023-10-12T22:59:23.943Z,76.58
2023-10-12T23:02:07.329Z,77.43
2023-10-12T23:04:44.121Z,77.71
2023-10-12T23:07:20.628Z,78.01
2023-10-12T23:10:06.892Z,78.32
2023-10-12T23:12:43.314Z,77.74
2023-10-12T23:15:22.674Z,78.12
2023-10-12T23:18:18.285Z,78.86
2023-10-12T23:21:07.106Z,78.75
2023-10-12T23:23:39.058Z,78.17
2023-10-12T23:26:22.457Z,78.00
2023-10-12T23:28:58.351Z,78.27
2023-10-12T23:31:46.590Z,78.12
2023-10-12T23:34:36.737Z,78.78
2023-10-12T23:37:20.156Z,79.12
2023-10-12T23:39:58.025Z,79.39
2023-10-12T23:42:41.047Z,79.43
2023-10-12T23:45:36.928Z,78.93
2023-10-12T23:48:27.564Z,78.98
2023-10-12T23:51:15.075Z,79.23
2023-10-12T23:54:03.791Z,79.04
2023-10-12T23:56:44.946Z,78.97
2023-10-12T23:59:24.279Z,78.77
